Vienna, Virginia
Current Conditions -  °F | °C
As of 8:52 AM on Saturday 20 Dec 2014 (Local Time) from KIAD Reporting Station
Overcast Overcast  
Wind Chill: 28°   Ceiling: 20000
Heat Index: 28°   Visibility: 10mi
Dew Point: 21°   Wind: 0mph
Humidity: 75%   Direction: NA
Pressure: 30.32"   Gusts: NA
Location:  38.9°N, 77.26°W
Report Text: KIAD 201352Z 00000KT 10SM SCT120 OVC200 M02/M06 A3032 RMK AO2 SLP272 T10221061
Loading
Personal Weather Stations






























Interactive Weather Map New forecast layout! Learn more

10-Day Weather Forecast

Advertisements
Track Severe Weather on mobile